Peytona, West Virginia
Current Conditions -  °F | °C
As of 12:54 PM on Saturday 25 Oct 2014 (Local Time) from KCRW Reporting Station
Broken Clouds Broken Clouds  
Wind Chill: 62°   Ceiling: 8000
Heat Index: 62°   Visibility: 10mi
Dew Point: 47°   Wind: 9mph
Humidity: 58%   Direction: 240°WSW
Pressure: 30.01"   Gusts: NA
Location:  38.14°N, 81.68°W
Report Text: KCRW 251654Z 24008KT 10SM BKN080 BKN250 17/08 A3001 RMK AO2 SLP162 T01670083 $
Loading
Personal Weather Stations






























Interactive Weather Map
Tropical Storm Tracking
New forecast layout! Learn more

10-Day Weather Forecast

Advertisements
Track Severe Weather on mobile